TimeCST,TemperatureF,Dew PointF,Humidity,Sea Level PressureIn,VisibilityMPH,Wind Direction,Wind SpeedMPH,Gust SpeedMPH,PrecipitationIn,Events,Conditions,WindDirDegrees,DateUTC
12:54 AM,48.0,39.0,71,30.04,10.0,South,15.0,-,N/A,,Clear,180,2011-11-06 05:54:00
1:54 AM,48.0,39.9,74,30.02,10.0,South,12.7,-,N/A,,Clear,170,2011-11-06 06:54:00
1:54 AM,48.9,41.0,74,30.02,10.0,South,15.0,-,N/A,,Clear,180,2011-11-06 07:54:00
2:54 AM,48.0,41.0,77,30.01,10.0,South,13.8,23.0,N/A,,Clear,180,2011-11-06 08:54:00
3:54 AM,48.9,42.1,77,30.00,10.0,South,13.8,21.9,N/A,,Clear,180,2011-11-06 09:54:00
4:54 AM,48.9,42.1,77,30.00,10.0,South,16.1,23.0,N/A,,Clear,180,2011-11-06 10:54:00
5:54 AM,48.9,43.0,80,30.01,9.0,South,13.8,23.0,N/A,,Clear,180,2011-11-06 11:54:00
6:54 AM,48.9,43.0,80,30.01,7.0,South,13.8,-,N/A,,Overcast,170,2011-11-06 12:54:00
7:54 AM,52.0,45.0,77,30.02,8.0,South,13.8,23.0,N/A,,Overcast,180,2011-11-06 13:54:00
8:54 AM,55.0,46.9,74,30.02,10.0,South,20.7,27.6,N/A,,Mostly Cloudy,180,2011-11-06 14:54:00
9:54 AM,55.9,46.9,72,30.02,10.0,South,16.1,33.4,N/A,,Overcast,190,2011-11-06 15:54:00
10:54 AM,55.9,46.9,72,30.03,10.0,South,20.7,32.2,N/A,,Overcast,190,2011-11-06 16:54:00
11:54 AM,57.9,48.0,70,30.01,10.0,South,19.6,25.3,N/A,,Overcast,190,2011-11-06 17:54:00
12:54 PM,59.0,48.0,67,30.01,10.0,South,19.6,28.8,N/A,,Overcast,190,2011-11-06 18:54:00
1:54 PM,60.1,48.0,64,30.00,10.0,South,16.1,26.5,N/A,,Overcast,180,2011-11-06 19:54:00
2:42 PM,59.0,48.2,67,30.01,10.0,South,13.8,-,N/A,,Overcast,190,2011-11-06 20:42:00
2:54 PM,59.0,48.0,67,30.01,10.0,South,15.0,-,N/A,,Overcast,190,2011-11-06 20:54:00
3:54 PM,60.1,48.9,67,30.02,10.0,South,13.8,-,N/A,,Overcast,190,2011-11-06 21:54:00
4:04 PM,60.8,48.2,63,30.02,10.0,South,13.8,21.9,N/A,,Overcast,190,2011-11-06 22:04:00
4:54 PM,59.0,46.9,64,30.04,10.0,South,10.4,-,N/A,,Overcast,180,2011-11-06 22:54:00
5:54 PM,57.9,45.0,62,30.06,10.0,South,19.6,-,N/A,,Overcast,180,2011-11-06 23:54:00
6:54 PM,55.9,44.1,64,30.08,10.0,South,16.1,-,N/A,,Mostly Cloudy,190,2011-11-07 00:54:00
7:54 PM,55.0,44.1,67,30.09,10.0,South,11.5,-,N/A,,Mostly Cloudy,190,2011-11-07 01:54:00
8:54 PM,53.1,44.1,71,30.11,10.0,SSW,9.2,-,N/A,,Clear,200,2011-11-07 02:54:00
9:54 PM,51.1,44.1,77,30.12,10.0,South,9.2,-,N/A,,Clear,190,2011-11-07 03:54:00
10:54 PM,52.0,44.1,74,30.12,10.0,SSW,6.9,-,N/A,,Overcast,200,2011-11-07 04:54:00